sensor_id;sensor_type;location;lat;lon;timestamp;temperature;humidity
24636;DHT22;12772;49.794;10.024;2022-10-16T00:00:57;18.30;67.70
24636;DHT22;12772;49.794;10.024;2022-10-16T00:04:59;18.30;67.60
24636;DHT22;12772;49.794;10.024;2022-10-16T00:09:01;18.30;67.50
24636;DHT22;12772;49.794;10.024;2022-10-16T00:13:03;18.40;67.50
24636;DHT22;12772;49.794;10.024;2022-10-16T00:17:05;18.30;67.40
24636;DHT22;12772;49.794;10.024;2022-10-16T00:21:14;18.30;67.40
24636;DHT22;12772;49.794;10.024;2022-10-16T00:25:16;18.40;67.50
24636;DHT22;12772;49.794;10.024;2022-10-16T00:29:18;18.40;67.60
24636;DHT22;12772;49.794;10.024;2022-10-16T00:33:20;18.40;67.40
24636;DHT22;12772;49.794;10.024;2022-10-16T00:37:22;18.40;67.40
24636;DHT22;12772;49.794;10.024;2022-10-16T00:41:25;18.40;67.20
24636;DHT22;12772;49.794;10.024;2022-10-16T00:45:27;18.50;67.20
24636;DHT22;12772;49.794;10.024;2022-10-16T00:49:29;18.40;67.00
24636;DHT22;12772;49.794;10.024;2022-10-16T00:53:32;18.50;66.90
24636;DHT22;12772;49.794;10.024;2022-10-16T00:57:35;18.50;66.80
24636;DHT22;12772;49.794;10.024;2022-10-16T01:01:37;18.50;66.80
24636;DHT22;12772;49.794;10.024;2022-10-16T01:05:44;18.50;66.80
24636;DHT22;12772;49.794;10.024;2022-10-16T01:09:51;18.50;66.60
24636;DHT22;12772;49.794;10.024;2022-10-16T01:13:59;18.50;66.60
24636;DHT22;12772;49.794;10.024;2022-10-16T01:23:20;18.50;66.40
24636;DHT22;12772;49.794;10.024;2022-10-16T01:31:08;18.40;66.40
24636;DHT22;12772;49.794;10.024;2022-10-16T01:35:17;18.40;66.40
24636;DHT22;12772;49.794;10.024;2022-10-16T01:39:25;18.40;66.40
24636;DHT22;12772;49.794;10.024;2022-10-16T01:43:42;18.50;66.50
24636;DHT22;12772;49.794;10.024;2022-10-16T01:47:47;18.50;66.30
24636;DHT22;12772;49.794;10.024;2022-10-16T01:51:54;18.50;66.40
24636;DHT22;12772;49.794;10.024;2022-10-16T01:55:58;18.60;66.50
24636;DHT22;12772;49.794;10.024;2022-10-16T02:00:04;18.60;66.50
24636;DHT22;12772;49.794;10.024;2022-10-16T02:04:13;18.60;66.40
24636;DHT22;12772;49.794;10.024;2022-10-16T02:08:17;18.60;66.30
24636;DHT22;12772;49.794;10.024;2022-10-16T02:12:27;18.60;66.40
24636;DHT22;12772;49.794;10.024;2022-10-16T02:16:39;18.60;66.40
24636;DHT22;12772;49.794;10.024;2022-10-16T02:20:57;18.60;66.50
24636;DHT22;12772;49.794;10.024;2022-10-16T02:29:11;18.50;66.50
24636;DHT22;12772;49.794;10.024;2022-10-16T02:33:15;18.50;66.50
24636;DHT22;12772;49.794;10.024;2022-10-16T02:37:18;18.60;66.40
24636;DHT22;12772;49.794;10.024;2022-10-16T02:41:21;18.60;66.40
24636;DHT22;12772;49.794;10.024;2022-10-16T02:45:23;18.50;66.30
24636;DHT22;12772;49.794;10.024;2022-10-16T02:49:26;18.50;66.70
24636;DHT22;12772;49.794;10.024;2022-10-16T02:53:28;18.50;66.20
24636;DHT22;12772;49.794;10.024;2022-10-16T02:57:30;18.50;66.20
24636;DHT22;12772;49.794;10.024;2022-10-16T03:01:32;18.50;66.10
24636;DHT22;12772;49.794;10.024;2022-10-16T03:05:34;18.50;66.10
24636;DHT22;12772;49.794;10.024;2022-10-16T03:09:36;18.50;66.00
24636;DHT22;12772;49.794;10.024;2022-10-16T03:13:38;18.50;66.10
24636;DHT22;12772;49.794;10.024;2022-10-16T03:17:40;18.50;66.00
24636;DHT22;12772;49.794;10.024;2022-10-16T03:21:42;18.50;66.00
24636;DHT22;12772;49.794;10.024;2022-10-16T03:25:44;18.50;66.10
24636;DHT22;12772;49.794;10.024;2022-10-16T03:29:46;18.50;65.90
24636;DHT22;12772;49.794;10.024;2022-10-16T03:33:48;18.50;66.00
24636;DHT22;12772;49.794;10.024;2022-10-16T03:37:50;18.50;65.90
24636;DHT22;12772;49.794;10.024;2022-10-16T03:41:52;18.50;65.80
24636;DHT22;12772;49.794;10.024;2022-10-16T03:45:54;18.50;66.40
24636;DHT22;12772;49.794;10.024;2022-10-16T03:49:56;18.40;65.70
24636;DHT22;12772;49.794;10.024;2022-10-16T03:53:58;18.40;66.00
24636;DHT22;12772;49.794;10.024;2022-10-16T03:58:01;18.40;65.60
24636;DHT22;12772;49.794;10.024;2022-10-16T04:02:03;18.40;65.70
24636;DHT22;12772;49.794;10.024;2022-10-16T04:06:05;18.40;65.60
24636;DHT22;12772;49.794;10.024;2022-10-16T04:10:07;18.40;65.50
24636;DHT22;12772;49.794;10.024;2022-10-16T04:14:09;18.40;65.50
24636;DHT22;12772;49.794;10.024;2022-10-16T04:18:11;18.40;65.40
24636;DHT22;12772;49.794;10.024;2022-10-16T04:22:14;18.40;65.40
24636;DHT22;12772;49.794;10.024;2022-10-16T04:26:16;18.40;65.20
24636;DHT22;12772;49.794;10.024;2022-10-16T04:30:18;18.40;65.30
24636;DHT22;12772;49.794;10.024;2022-10-16T04:34:20;18.40;65.30
24636;DHT22;12772;49.794;10.024;2022-10-16T04:38:22;18.40;65.30
24636;DHT22;12772;49.794;10.024;2022-10-16T04:42:24;18.40;65.30
24636;DHT22;12772;49.794;10.024;2022-10-16T04:46:26;18.40;65.20
24636;DHT22;12772;49.794;10.024;2022-10-16T04:50:28;18.40;65.30
24636;DHT22;12772;49.794;10.024;2022-10-16T04:54:30;18.40;65.30
24636;DHT22;12772;49.794;10.024;2022-10-16T04:58:32;18.40;65.30
24636;DHT22;12772;49.794;10.024;2022-10-16T05:02:34;18.40;65.30
24636;DHT22;12772;49.794;10.024;2022-10-16T05:06:37;18.40;65.30
24636;DHT22;12772;49.794;10.024;2022-10-16T05:10:43;18.40;65.30
24636;DHT22;12772;49.794;10.024;2022-10-16T05:14:46;18.40;65.20
24636;DHT22;12772;49.794;10.024;2022-10-16T05:18:48;18.50;65.20
24636;DHT22;12772;49.794;10.024;2022-10-16T05:22:50;18.50;65.00
24636;DHT22;12772;49.794;10.024;2022-10-16T05:26:52;18.50;64.50
24636;DHT22;12772;49.794;10.024;2022-10-16T05:30:54;18.50;64.50
24636;DHT22;12772;49.794;10.024;2022-10-16T05:34:56;18.50;64.50
24636;DHT22;12772;49.794;10.024;2022-10-16T05:39:00;18.50;64.50
24636;DHT22;12772;49.794;10.024;2022-10-16T05:43:02;18.50;64.50
24636;DHT22;12772;49.794;10.024;2022-10-16T05:47:04;18.40;64.40
24636;DHT22;12772;49.794;10.024;2022-10-16T05:51:07;18.50;64.50
24636;DHT22;12772;49.794;10.024;2022-10-16T05:55:10;18.50;64.50
24636;DHT22;12772;49.794;10.024;2022-10-16T05:59:12;18.50;64.50
24636;DHT22;12772;49.794;10.024;2022-10-16T06:03:14;18.50;64.50
24636;DHT22;12772;49.794;10.024;2022-10-16T06:07:16;18.50;64.50
24636;DHT22;12772;49.794;10.024;2022-10-16T06:11:21;18.50;64.50
24636;DHT22;12772;49.794;10.024;2022-10-16T06:15:23;18.50;64.50
24636;DHT22;12772;49.794;10.024;2022-10-16T06:19:25;18.50;64.60
24636;DHT22;12772;49.794;10.024;2022-10-16T06:23:28;18.50;64.50
24636;DHT22;12772;49.794;10.024;2022-10-16T06:27:30;18.50;64.50
24636;DHT22;12772;49.794;10.024;2022-10-16T06:31:32;18.50;64.50
24636;DHT22;12772;49.794;10.024;2022-10-16T06:35:34;18.50;64.50
24636;DHT22;12772;49.794;10.024;2022-10-16T06:39:36;18.50;64.50
24636;DHT22;12772;49.794;10.024;2022-10-16T06:43:38;18.50;64.50
24636;DHT22;12772;49.794;10.024;2022-10-16T06:47:40;18.50;64.50
24636;DHT22;12772;49.794;10.024;2022-10-16T06:51:42;18.50;64.50
24636;DHT22;12772;49.794;10.024;2022-10-16T06:55:44;18.50;64.50
24636;DHT22;12772;49.794;10.024;2022-10-16T06:59:46;18.50;64.50
24636;DHT22;12772;49.794;10.024;2022-10-16T07:03:48;18.60;64.60
24636;DHT22;12772;49.794;10.024;2022-10-16T07:07:50;18.60;64.60
24636;DHT22;12772;49.794;10.024;2022-10-16T07:11:52;18.60;64.60
24636;DHT22;12772;49.794;10.024;2022-10-16T07:15:55;18.60;64.60
24636;DHT22;12772;49.794;10.024;2022-10-16T07:19:57;18.70;64.70
24636;DHT22;12772;49.794;10.024;2022-10-16T07:23:59;18.70;64.70
24636;DHT22;12772;49.794;10.024;2022-10-16T07:28:03;18.70;64.70
24636;DHT22;12772;49.794;10.024;2022-10-16T07:32:05;18.80;64.80
24636;DHT22;12772;49.794;10.024;2022-10-16T07:36:07;18.80;64.80
24636;DHT22;12772;49.794;10.024;2022-10-16T07:40:09;18.80;64.80
24636;DHT22;12772;49.794;10.024;2022-10-16T07:44:11;18.80;64.90
24636;DHT22;12772;49.794;10.024;2022-10-16T07:48:14;18.80;64.80
24636;DHT22;12772;49.794;10.024;2022-10-16T07:52:16;18.90;64.80
24636;DHT22;12772;49.794;10.024;2022-10-16T07:56:18;18.90;64.80
24636;DHT22;12772;49.794;10.024;2022-10-16T08:00:21;18.90;65.30
24636;DHT22;12772;49.794;10.024;2022-10-16T08:04:23;18.90;64.80
24636;DHT22;12772;49.794;10.024;2022-10-16T08:08:25;19.00;65.00
24636;DHT22;12772;49.794;10.024;2022-10-16T08:12:27;19.10;65.50
24636;DHT22;12772;49.794;10.024;2022-10-16T08:16:29;19.10;65.00
24636;DHT22;12772;49.794;10.024;2022-10-16T08:20:33;19.10;65.00
24636;DHT22;12772;49.794;10.024;2022-10-16T08:24:35;19.10;65.00
24636;DHT22;12772;49.794;10.024;2022-10-16T08:28:38;19.10;65.00
24636;DHT22;12772;49.794;10.024;2022-10-16T08:32:40;19.20;65.10
24636;DHT22;12772;49.794;10.024;2022-10-16T08:36:43;19.30;65.20
24636;DHT22;12772;49.794;10.024;2022-10-16T08:40:48;19.30;65.10
24636;DHT22;12772;49.794;10.024;2022-10-16T08:48:54;19.30;64.80
24636;DHT22;12772;49.794;10.024;2022-10-16T08:52:58;19.40;64.60
24636;DHT22;12772;49.794;10.024;2022-10-16T08:57:14;19.40;64.50
24636;DHT22;12772;49.794;10.024;2022-10-16T09:01:17;19.50;64.40
24636;DHT22;12772;49.794;10.024;2022-10-16T09:05:31;19.50;64.70
24636;DHT22;12772;49.794;10.024;2022-10-16T09:18:54;19.60;64.40
24636;DHT22;12772;49.794;10.024;2022-10-16T09:27:14;19.80;64.00
24636;DHT22;12772;49.794;10.024;2022-10-16T09:31:21;19.80;63.80
24636;DHT22;12772;49.794;10.024;2022-10-16T09:35:48;19.80;63.60
24636;DHT22;12772;49.794;10.024;2022-10-16T09:39:52;19.90;63.60
24636;DHT22;12772;49.794;10.024;2022-10-16T09:43:57;20.00;63.50
24636;DHT22;12772;49.794;10.024;2022-10-16T09:48:08;20.00;63.00
24636;DHT22;12772;49.794;10.024;2022-10-16T09:52:14;20.10;63.20
24636;DHT22;12772;49.794;10.024;2022-10-16T09:56:23;20.00;62.90
24636;DHT22;12772;49.794;10.024;2022-10-16T10:00:25;20.00;63.00
24636;DHT22;12772;49.794;10.024;2022-10-16T10:04:38;20.00;63.10
24636;DHT22;12772;49.794;10.024;2022-10-16T10:08:41;20.10;63.00
24636;DHT22;12772;49.794;10.024;2022-10-16T10:12:45;20.10;63.40
24636;DHT22;12772;49.794;10.024;2022-10-16T10:16:47;20.10;63.30
24636;DHT22;12772;49.794;10.024;2022-10-16T10:21:01;20.10;63.40
24636;DHT22;12772;49.794;10.024;2022-10-16T10:29:17;20.10;63.70
24636;DHT22;12772;49.794;10.024;2022-10-16T10:33:41;20.20;63.90
24636;DHT22;12772;49.794;10.024;2022-10-16T10:42:22;20.20;64.20
24636;DHT22;12772;49.794;10.024;2022-10-16T10:46:35;20.10;64.40
24636;DHT22;12772;49.794;10.024;2022-10-16T10:51:01;20.10;64.90
24636;DHT22;12772;49.794;10.024;2022-10-16T10:55:16;20.00;65.50
24636;DHT22;12772;49.794;10.024;2022-10-16T10:59:45;19.90;65.60
24636;DHT22;12772;49.794;10.024;2022-10-16T11:12:29;20.00;66.50
24636;DHT22;12772;49.794;10.024;2022-10-16T11:16:39;20.10;66.80
24636;DHT22;12772;49.794;10.024;2022-10-16T11:20:47;20.30;66.60
24636;DHT22;12772;49.794;10.024;2022-10-16T11:29:10;20.90;66.40
24636;DHT22;12772;49.794;10.024;2022-10-16T11:37:26;21.50;63.70
24636;DHT22;12772;49.794;10.024;2022-10-16T11:41:37;21.80;62.10
24636;DHT22;12772;49.794;10.024;2022-10-16T11:45:49;22.10;61.90
24636;DHT22;12772;49.794;10.024;2022-10-16T11:49:59;22.50;61.40
24636;DHT22;12772;49.794;10.024;2022-10-16T12:07:23;23.50;59.00
24636;DHT22;12772;49.794;10.024;2022-10-16T12:15:31;23.90;55.80
24636;DHT22;12772;49.794;10.024;2022-10-16T12:19:33;24.10;54.10
24636;DHT22;12772;49.794;10.024;2022-10-16T12:23:50;24.30;53.00
24636;DHT22;12772;49.794;10.024;2022-10-16T12:28:00;24.40;52.80
24636;DHT22;12772;49.794;10.024;2022-10-16T12:32:05;24.60;51.60
24636;DHT22;12772;49.794;10.024;2022-10-16T12:36:16;24.70;50.40
24636;DHT22;12772;49.794;10.024;2022-10-16T12:40:33;24.70;50.00
24636;DHT22;12772;49.794;10.024;2022-10-16T12:44:36;24.90;50.60
24636;DHT22;12772;49.794;10.024;2022-10-16T12:48:40;25.00;50.40
24636;DHT22;12772;49.794;10.024;2022-10-16T12:52:42;25.10;51.00
24636;DHT22;12772;49.794;10.024;2022-10-16T12:57:24;25.20;50.60
24636;DHT22;12772;49.794;10.024;2022-10-16T13:01:32;25.30;49.70
24636;DHT22;12772;49.794;10.024;2022-10-16T13:27:44;25.30;49.50
24636;DHT22;12772;49.794;10.024;2022-10-16T13:31:48;25.20;50.20
24636;DHT22;12772;49.794;10.024;2022-10-16T13:35:55;25.00;49.60
24636;DHT22;12772;49.794;10.024;2022-10-16T13:40:27;24.90;48.90
24636;DHT22;12772;49.794;10.024;2022-10-16T13:44:34;24.80;48.90
24636;DHT22;12772;49.794;10.024;2022-10-16T13:48:37;24.60;48.30
24636;DHT22;12772;49.794;10.024;2022-10-16T13:52:40;24.40;48.60
24636;DHT22;12772;49.794;10.024;2022-10-16T13:56:42;24.30;49.10
24636;DHT22;12772;49.794;10.024;2022-10-16T14:00:55;24.20;49.70
24636;DHT22;12772;49.794;10.024;2022-10-16T14:04:57;24.20;49.70
24636;DHT22;12772;49.794;10.024;2022-10-16T14:09:27;24.10;49.90
24636;DHT22;12772;49.794;10.024;2022-10-16T14:13:36;24.10;49.90
24636;DHT22;12772;49.794;10.024;2022-10-16T14:17:44;24.00;50.20
24636;DHT22;12772;49.794;10.024;2022-10-16T14:21:47;23.90;50.40
24636;DHT22;12772;49.794;10.024;2022-10-16T14:25:50;23.90;51.10
24636;DHT22;12772;49.794;10.024;2022-10-16T14:30:17;23.80;50.10
24636;DHT22;12772;49.794;10.024;2022-10-16T14:38:26;23.70;50.50
24636;DHT22;12772;49.794;10.024;2022-10-16T14:42:28;23.60;50.50
24636;DHT22;12772;49.794;10.024;2022-10-16T14:46:36;23.60;51.00
24636;DHT22;12772;49.794;10.024;2022-10-16T14:50:38;23.60;51.80
24636;DHT22;12772;49.794;10.024;2022-10-16T14:54:41;23.60;52.20
24636;DHT22;12772;49.794;10.024;2022-10-16T14:58:43;23.60;52.30
24636;DHT22;12772;49.794;10.024;2022-10-16T15:02:45;23.60;52.60
24636;DHT22;12772;49.794;10.024;2022-10-16T15:06:48;23.60;52.70
24636;DHT22;12772;49.794;10.024;2022-10-16T15:10:50;23.60;53.10
24636;DHT22;12772;49.794;10.024;2022-10-16T15:14:52;23.60;53.30
24636;DHT22;12772;49.794;10.024;2022-10-16T15:18:54;23.50;53.20
24636;DHT22;12772;49.794;10.024;2022-10-16T15:22:57;23.50;53.50
24636;DHT22;12772;49.794;10.024;2022-10-16T15:26:59;23.50;53.90
24636;DHT22;12772;49.794;10.024;2022-10-16T15:31:04;23.50;54.30
24636;DHT22;12772;49.794;10.024;2022-10-16T15:35:09;23.40;54.60
24636;DHT22;12772;49.794;10.024;2022-10-16T15:39:16;23.30;55.00
24636;DHT22;12772;49.794;10.024;2022-10-16T15:43:18;23.30;55.40
24636;DHT22;12772;49.794;10.024;2022-10-16T15:47:20;23.20;55.70
24636;DHT22;12772;49.794;10.024;2022-10-16T15:51:23;23.10;55.70
24636;DHT22;12772;49.794;10.024;2022-10-16T15:55:25;23.00;55.40
24636;DHT22;12772;49.794;10.024;2022-10-16T15:59:27;22.90;55.10
24636;DHT22;12772;49.794;10.024;2022-10-16T16:03:30;22.90;55.50
24636;DHT22;12772;49.794;10.024;2022-10-16T16:07:33;22.80;55.70
24636;DHT22;12772;49.794;10.024;2022-10-16T16:11:36;22.80;55.90
24636;DHT22;12772;49.794;10.024;2022-10-16T16:15:40;22.80;56.10
24636;DHT22;12772;49.794;10.024;2022-10-16T16:19:42;22.80;56.10
24636;DHT22;12772;49.794;10.024;2022-10-16T16:23:44;22.80;56.30
24636;DHT22;12772;49.794;10.024;2022-10-16T16:27:46;22.70;56.80
24636;DHT22;12772;49.794;10.024;2022-10-16T16:31:48;22.70;57.10
24636;DHT22;12772;49.794;10.024;2022-10-16T16:35:50;22.60;57.50
24636;DHT22;12772;49.794;10.024;2022-10-16T16:39:52;22.60;57.90
24636;DHT22;12772;49.794;10.024;2022-10-16T16:44:01;22.50;57.80
24636;DHT22;12772;49.794;10.024;2022-10-16T16:48:04;22.40;57.70
24636;DHT22;12772;49.794;10.024;2022-10-16T16:52:06;22.40;57.70
24636;DHT22;12772;49.794;10.024;2022-10-16T16:56:08;22.40;57.70
24636;DHT22;12772;49.794;10.024;2022-10-16T17:00:11;22.30;57.60
24636;DHT22;12772;49.794;10.024;2022-10-16T17:04:13;22.30;57.60
24636;DHT22;12772;49.794;10.024;2022-10-16T17:08:15;22.20;57.50
24636;DHT22;12772;49.794;10.024;2022-10-16T17:12:18;22.10;57.40
24636;DHT22;12772;49.794;10.024;2022-10-16T17:16:22;22.10;57.80
24636;DHT22;12772;49.794;10.024;2022-10-16T17:20:24;22.00;58.20
24636;DHT22;12772;49.794;10.024;2022-10-16T17:24:26;22.00;58.40
24636;DHT22;12772;49.794;10.024;2022-10-16T17:28:28;21.90;58.50
24636;DHT22;12772;49.794;10.024;2022-10-16T17:32:30;21.80;58.60
24636;DHT22;12772;49.794;10.024;2022-10-16T17:36:34;21.70;58.80
24636;DHT22;12772;49.794;10.024;2022-10-16T17:40:37;21.60;58.70
24636;DHT22;12772;49.794;10.024;2022-10-16T17:44:40;21.60;58.90
24636;DHT22;12772;49.794;10.024;2022-10-16T17:48:44;21.50;58.90
24636;DHT22;12772;49.794;10.024;2022-10-16T17:52:46;21.40;59.60
24636;DHT22;12772;49.794;10.024;2022-10-16T17:56:48;21.30;59.00
24636;DHT22;12772;49.794;10.024;2022-10-16T18:00:50;21.30;59.30
24636;DHT22;12772;49.794;10.024;2022-10-16T18:04:52;21.10;58.90
24636;DHT22;12772;49.794;10.024;2022-10-16T18:08:56;21.10;59.20
24636;DHT22;12772;49.794;10.024;2022-10-16T18:12:59;21.00;59.50
24636;DHT22;12772;49.794;10.024;2022-10-16T18:17:01;20.90;59.70
24636;DHT22;12772;49.794;10.024;2022-10-16T18:21:07;20.80;59.80
24636;DHT22;12772;49.794;10.024;2022-10-16T18:25:09;20.70;60.00
24636;DHT22;12772;49.794;10.024;2022-10-16T18:29:12;20.60;60.40
24636;DHT22;12772;49.794;10.024;2022-10-16T18:33:14;20.50;60.40
24636;DHT22;12772;49.794;10.024;2022-10-16T18:37:16;20.40;60.60
24636;DHT22;12772;49.794;10.024;2022-10-16T18:41:19;20.20;60.70
24636;DHT22;12772;49.794;10.024;2022-10-16T18:45:21;20.20;61.00
24636;DHT22;12772;49.794;10.024;2022-10-16T18:49:24;20.10;61.00
24636;DHT22;12772;49.794;10.024;2022-10-16T18:53:27;20.00;60.90
24636;DHT22;12772;49.794;10.024;2022-10-16T18:57:29;20.00;60.80
24636;DHT22;12772;49.794;10.024;2022-10-16T19:01:33;19.90;60.90
24636;DHT22;12772;49.794;10.024;2022-10-16T19:05:35;19.90;60.90
24636;DHT22;12772;49.794;10.024;2022-10-16T19:09:38;19.90;61.00
24636;DHT22;12772;49.794;10.024;2022-10-16T19:13:41;19.80;61.00
24636;DHT22;12772;49.794;10.024;2022-10-16T19:17:43;19.80;61.00
24636;DHT22;12772;49.794;10.024;2022-10-16T19:21:45;19.80;60.90
24636;DHT22;12772;49.794;10.024;2022-10-16T19:25:47;19.80;60.80
24636;DHT22;12772;49.794;10.024;2022-10-16T19:29:49;19.70;60.70
24636;DHT22;12772;49.794;10.024;2022-10-16T19:33:53;19.70;60.80
24636;DHT22;12772;49.794;10.024;2022-10-16T19:37:55;19.70;60.80
24636;DHT22;12772;49.794;10.024;2022-10-16T19:41:57;19.70;60.80
24636;DHT22;12772;49.794;10.024;2022-10-16T19:46:12;19.70;60.80
24636;DHT22;12772;49.794;10.024;2022-10-16T19:50:14;19.70;60.70
24636;DHT22;12772;49.794;10.024;2022-10-16T19:54:18;19.70;60.70
24636;DHT22;12772;49.794;10.024;2022-10-16T19:58:21;19.70;60.90
24636;DHT22;12772;49.794;10.024;2022-10-16T20:02:23;19.70;60.80
24636;DHT22;12772;49.794;10.024;2022-10-16T20:06:26;19.60;60.60
24636;DHT22;12772;49.794;10.024;2022-10-16T20:10:28;19.50;61.00
24636;DHT22;12772;49.794;10.024;2022-10-16T20:14:30;19.50;60.60
24636;DHT22;12772;49.794;10.024;2022-10-16T20:18:32;19.40;60.60
24636;DHT22;12772;49.794;10.024;2022-10-16T20:22:34;19.40;60.50
24636;DHT22;12772;49.794;10.024;2022-10-16T20:26:37;19.40;60.40
24636;DHT22;12772;49.794;10.024;2022-10-16T20:30:41;19.30;60.30
24636;DHT22;12772;49.794;10.024;2022-10-16T20:34:43;19.30;60.30
24636;DHT22;12772;49.794;10.024;2022-10-16T20:38:49;19.20;60.30
24636;DHT22;12772;49.794;10.024;2022-10-16T20:42:51;19.20;60.40
24636;DHT22;12772;49.794;10.024;2022-10-16T20:46:53;19.20;60.40
24636;DHT22;12772;49.794;10.024;2022-10-16T20:50:56;19.10;60.40
24636;DHT22;12772;49.794;10.024;2022-10-16T20:54:59;19.10;60.40
24636;DHT22;12772;49.794;10.024;2022-10-16T20:59:02;19.00;60.30
24636;DHT22;12772;49.794;10.024;2022-10-16T21:03:04;18.90;60.30
24636;DHT22;12772;49.794;10.024;2022-10-16T21:07:06;18.90;60.30
24636;DHT22;12772;49.794;10.024;2022-10-16T21:11:10;18.80;60.20
24636;DHT22;12772;49.794;10.024;2022-10-16T21:15:12;18.80;60.10
24636;DHT22;12772;49.794;10.024;2022-10-16T21:19:14;18.80;60.20
24636;DHT22;12772;49.794;10.024;2022-10-16T21:23:17;18.70;60.20
24636;DHT22;12772;49.794;10.024;2022-10-16T21:27:19;18.70;60.10
24636;DHT22;12772;49.794;10.024;2022-10-16T21:31:22;18.60;60.10
24636;DHT22;12772;49.794;10.024;2022-10-16T21:35:24;18.60;60.20
24636;DHT22;12772;49.794;10.024;2022-10-16T21:39:26;18.60;60.30
24636;DHT22;12772;49.794;10.024;2022-10-16T21:43:28;18.50;60.40
24636;DHT22;12772;49.794;10.024;2022-10-16T21:47:30;18.50;60.40
24636;DHT22;12772;49.794;10.024;2022-10-16T21:51:36;18.50;60.50
24636;DHT22;12772;49.794;10.024;2022-10-16T21:55:38;18.50;60.50
24636;DHT22;12772;49.794;10.024;2022-10-16T21:59:40;18.40;60.40
24636;DHT22;12772;49.794;10.024;2022-10-16T22:03:44;18.40;60.40
24636;DHT22;12772;49.794;10.024;2022-10-16T22:07:46;18.40;60.40
24636;DHT22;12772;49.794;10.024;2022-10-16T22:11:48;18.40;60.40
24636;DHT22;12772;49.794;10.024;2022-10-16T22:15:50;18.30;60.40
24636;DHT22;12772;49.794;10.024;2022-10-16T22:19:52;18.30;60.40
24636;DHT22;12772;49.794;10.024;2022-10-16T22:23:54;18.30;60.30
24636;DHT22;12772;49.794;10.024;2022-10-16T22:27:57;18.20;60.10
24636;DHT22;12772;49.794;10.024;2022-10-16T22:31:59;18.20;60.10
24636;DHT22;12772;49.794;10.024;2022-10-16T22:36:03;18.20;60.00
24636;DHT22;12772;49.794;10.024;2022-10-16T22:40:06;18.10;60.00
24636;DHT22;12772;49.794;10.024;2022-10-16T22:44:10;18.00;59.80
24636;DHT22;12772;49.794;10.024;2022-10-16T22:48:12;17.90;59.80
24636;DHT22;12772;49.794;10.024;2022-10-16T22:52:14;17.80;60.00
24636;DHT22;12772;49.794;10.024;2022-10-16T22:56:19;17.80;60.10
24636;DHT22;12772;49.794;10.024;2022-10-16T23:00:22;17.70;60.30
24636;DHT22;12772;49.794;10.024;2022-10-16T23:04:24;17.70;60.40
24636;DHT22;12772;49.794;10.024;2022-10-16T23:08:26;17.70;60.40
24636;DHT22;12772;49.794;10.024;2022-10-16T23:12:28;17.70;60.30
24636;DHT22;12772;49.794;10.024;2022-10-16T23:16:30;17.60;60.30
24636;DHT22;12772;49.794;10.024;2022-10-16T23:20:32;17.60;60.20
24636;DHT22;12772;49.794;10.024;2022-10-16T23:24:34;17.60;60.70
24636;DHT22;12772;49.794;10.024;2022-10-16T23:28:36;17.60;60.20
24636;DHT22;12772;49.794;10.024;2022-10-16T23:32:39;17.50;60.40
24636;DHT22;12772;49.794;10.024;2022-10-16T23:36:41;17.50;60.00
24636;DHT22;12772;49.794;10.024;2022-10-16T23:40:44;17.40;60.00
24636;DHT22;12772;49.794;10.024;2022-10-16T23:44:46;17.40;60.00
24636;DHT22;12772;49.794;10.024;2022-10-16T23:48:49;17.30;59.90
24636;DHT22;12772;49.794;10.024;2022-10-16T23:52:51;17.30;59.90
24636;DHT22;12772;49.794;10.024;2022-10-16T23:56:53;17.30;59.80
